Darstellungsparameter: Aktuell verwendete Einstellungen:
Skalierung der Graphiken ... ?
xyx+y,   Skalierungsfaktor:      Skalierung: Modus: x, Faktor: 1
Darstellungszeitraum ... ?
Vom - - bis: - -   Zeitraum: 05.05.2011 - 05.05.2011
Min/Max/Avg-Anzeige ... ?
Zeige MMA aktuell
Zeige MMA Monat
Zeige MMA alles
Zeige --A aktuell
Zeige --A Monat
Zeige --A alles
Keine MMA-Anzeige
MMA:
Keine MMA-Graphiken
MMA-Basis: 05.05.2011 - 05.05.2011
Quicknavigation für Darstellung... ?
Tage:      1T, 2T, 3T, 5T -1T -2T -3T -5T +1T +2T +3T +5T
Wochen: 1W, 2W, 3W -1W -2W -3W +1W +2W +3W
Monate: 1M, 3M, 6M -1M -3M -6M +1M +3M +6M
Jahre:    1J, 3J, 5J, 10J -1J -3J -5J -10J +1J +3J +5J +10J
Nutze für die Darstellung ... ?
Originaldaten oder Mittelwerte auf ...
Stundenbasis Tagesbasis Wochenbasis
Monatsbasis Jahresbasis      Datenbasis: Original-Daten
Darstellen als:
Statistik (Auto) Statistik J:M      Darstellung:
Zur Graphik,    zurück zur Übersicht aller Sensoren.
 
Tabellarische Datenbersicht: ?
 
Sensor: Nr:Datum:Temp:Abs-Feuchte:Windchill:Wind:
Aussen-T/F 1 05-05-2011 00:04:02 3.9 C 4.42 g/m*3 3.9 C 0 km/h
2 05-05-2011 00:16:02 3.6 C 4.33 g/m*3 3.6 C 0 km/h
3 05-05-2011 00:28:03 3.4 C 4.34 g/m*3 3.4 C 0 km/h
4 05-05-2011 00:40:03 3.3 C 4.43 g/m*3 3.3 C 0 km/h
5 05-05-2011 00:52:03 3.1 C 4.37 g/m*3 3.1 C 0 km/h
6 05-05-2011 01:04:03 3 C 4.34 g/m*3 3 C 0 km/h
7 05-05-2011 01:16:03 2.7 C 4.37 g/m*3 2.7 C 0 km/h
8 05-05-2011 01:28:03 2.6 C 4.4 g/m*3 2.6 C 0 km/h
9 05-05-2011 01:40:03 2.5 C 4.48 g/m*3 2.5 C 0 km/h
10 05-05-2011 01:52:03 2.4 C 4.51 g/m*3 2.4 C 0 km/h
11 05-05-2011 02:04:03 2.2 C 4.45 g/m*3 2.2 C 0 km/h
12 05-05-2011 02:16:03 2.1 C 4.48 g/m*3 2.1 C 0 km/h
13 05-05-2011 02:28:03 2.1 C 4.53 g/m*3 2.1 C 0 km/h
14 05-05-2011 02:40:03 1.9 C 4.53 g/m*3 1.9 C 0 km/h
15 05-05-2011 02:52:03 1.8 C 4.55 g/m*3 1.8 C 0 km/h
16 05-05-2011 03:04:03 1.7 C 4.57 g/m*3 1.7 C 0 km/h
17 05-05-2011 03:16:03 1.6 C 4.6 g/m*3 1.6 C 0 km/h
18 05-05-2011 03:28:03 1.7 C 4.63 g/m*3 1.7 C 0 km/h
19 05-05-2011 03:40:03 1.4 C 4.53 g/m*3 1.4 C 0 km/h
20 05-05-2011 03:52:03 1.5 C 4.62 g/m*3 1.5 C 0 km/h
21 05-05-2011 04:04:03 1.4 C 4.64 g/m*3 1.4 C 0 km/h
22 05-05-2011 04:16:03 1.2 C 4.58 g/m*3 1.2 C 0 km/h
23 05-05-2011 04:28:04 1 C 4.52 g/m*3 1 C 0 km/h
24 05-05-2011 04:40:04 1 C 4.52 g/m*3 1 C 0 km/h
25 05-05-2011 04:52:04 0.9 C 4.54 g/m*3 0.9 C 0 km/h
Sensor: Nr:Datum:Temp:Abs-Feuchte:Windchill:Wind:
Aussen-T/F 26 05-05-2011 05:04:04 0.6 C 4.44 g/m*3 0.6 C 0 km/h
27 05-05-2011 05:16:04 0.7 C 4.53 g/m*3 0.7 C 0 km/h
28 05-05-2011 05:28:04 0.5 C 4.46 g/m*3 0.5 C 0 km/h
29 05-05-2011 05:40:04 0.4 C 4.43 g/m*3 0.4 C 0 km/h
30 05-05-2011 05:52:04 0.3 C 4.4 g/m*3 0.3 C 0 km/h
31 05-05-2011 06:04:04 0.5 C 4.46 g/m*3 0.5 C 0 km/h
32 05-05-2011 06:16:04 0.3 C 4.4 g/m*3 0.3 C 0 km/h
33 05-05-2011 06:28:04 0.2 C 4.37 g/m*3 0.2 C 0 km/h
34 05-05-2011 06:40:04 0.7 C 4.58 g/m*3 0.7 C 0 km/h
35 05-05-2011 06:52:04 0.5 C 4.51 g/m*3 0.5 C 0 km/h
36 05-05-2011 07:04:04 0.7 C 4.58 g/m*3 0.7 C 0 km/h
37 05-05-2011 07:16:04 1.1 C 4.7 g/m*3 1.1 C 0 km/h
38 05-05-2011 07:28:04 1.2 C 4.74 g/m*3 1.2 C 0 km/h
39 05-05-2011 07:40:04 1.6 C 4.87 g/m*3 1.6 C 0 km/h
40 05-05-2011 07:52:04 1.8 C 4.93 g/m*3 1.8 C 0 km/h
41 05-05-2011 08:04:04 2.1 C 4.98 g/m*3 2.1 C 0 km/h
42 05-05-2011 08:16:04 2.2 C 5.01 g/m*3 2.2 C 0 km/h
43 05-05-2011 08:28:04 2.6 C 5.15 g/m*3 2.6 C 0 km/h
44 05-05-2011 08:40:02 3 C 5.29 g/m*3 3 C 0 km/h
45 05-05-2011 08:52:02 3.4 C 5.44 g/m*3 3.4 C 0 km/h
46 05-05-2011 09:04:02 4 C 5.59 g/m*3 4 C 0 km/h
47 05-05-2011 09:16:02 4.6 C 5.82 g/m*3 4.6 C 0 km/h
48 05-05-2011 09:28:02 5.3 C 6.03 g/m*3 5.3 C 0 km/h
49 05-05-2011 09:40:02 5.8 C 6.09 g/m*3 5.8 C 0 km/h
50 05-05-2011 09:52:02 6.3 C 6.14 g/m*3 6.3 C 0 km/h
Sensor: Nr:Datum:Temp:Abs-Feuchte:Windchill:Wind:
Aussen-T/F 51 05-05-2011 10:04:02 7.1 C 6.4 g/m*3 7.1 C 0 km/h
52 05-05-2011 10:16:02 7.9 C 6.57 g/m*3 7.9 C 0 km/h
53 05-05-2011 10:28:02 9 C 6.7 g/m*3 9 C 0 km/h
54 05-05-2011 10:40:03 9.8 C 6.49 g/m*3 9.8 C 0 km/h
55 05-05-2011 10:52:02 10.9 C 6.07 g/m*3 10.9 C 0 km/h
56 05-05-2011 11:04:02 11.6 C 4.89 g/m*3 11.6 C 0 km/h
57 05-05-2011 11:16:02 12.5 C 4.73 g/m*3 12.5 C 0 km/h
58 05-05-2011 11:28:02 12.7 C 5.01 g/m*3 12.7 C 0 km/h
59 05-05-2011 11:40:02 13.3 C 4.39 g/m*3 13.3 C 0 km/h
60 05-05-2011 11:52:01 13.8 C 4.17 g/m*3 13.8 C 0 km/h
61 05-05-2011 12:04:02 13.9 C 3.84 g/m*3 13.9 C 0 km/h
62 05-05-2011 12:16:01 14.3 C 3.56 g/m*3 14.3 C 0 km/h
63 05-05-2011 12:28:01 14.5 C 3.48 g/m*3 14.5 C 0 km/h
64 05-05-2011 12:40:02 15.1 C 3.48 g/m*3 15.1 C 0 km/h
65 05-05-2011 12:52:02 15 C 3.33 g/m*3 15 C 0 km/h
66 05-05-2011 13:04:02 15.2 C 3.37 g/m*3 15.2 C 0 km/h
67 05-05-2011 13:16:02 15.8 C 3.63 g/m*3 15.8 C 0 km/h
68 05-05-2011 13:28:02 16.9 C 3.45 g/m*3 16.9 C 0 km/h
69 05-05-2011 13:40:02 21 C 3.66 g/m*3 21 C 0 km/h
70 05-05-2011 13:52:02 22.3 C 3.95 g/m*3 22.3 C 0 km/h
71 05-05-2011 14:04:03 23.1 C 4.13 g/m*3 23.1 C 0 km/h
72 05-05-2011 14:16:02 24.6 C 4.5 g/m*3 24.6 C 0 km/h
73 05-05-2011 14:28:02 22.2 C 3.93 g/m*3 22.2 C 0 km/h
74 05-05-2011 14:40:03 23.7 C 4.28 g/m*3 23.7 C 0 km/h
75 05-05-2011 14:52:02 23.7 C 4.28 g/m*3 23.7 C 0 km/h
Sensor: Nr:Datum:Temp:Abs-Feuchte:Windchill:Wind:
Aussen-T/F 76 05-05-2011 15:04:02 24.2 C 4.4 g/m*3 24.2 C 0 km/h
77 05-05-2011 15:16:02 24.5 C 4.48 g/m*3 24.5 C 0 km/h
78 05-05-2011 15:28:02 25.3 C 4.68 g/m*3 25.3 C 0 km/h
79 05-05-2011 15:40:02 23 C 4.11 g/m*3 23 C 0 km/h
80 05-05-2011 15:52:02 23.6 C 4.25 g/m*3 23.6 C 0 km/h
81 05-05-2011 16:04:03 22.1 C 3.9 g/m*3 22.1 C 0 km/h
82 05-05-2011 16:16:02 24.3 C 4.43 g/m*3 24.3 C 0 km/h
83 05-05-2011 16:28:02 22.9 C 4.09 g/m*3 22.9 C 0 km/h
84 05-05-2011 16:40:02 23.1 C 4.13 g/m*3 23.1 C 0 km/h
85 05-05-2011 16:52:02 23.5 C 4.23 g/m*3 23.5 C 0 km/h
86 05-05-2011 17:04:02 23.4 C 4.21 g/m*3 23.4 C 0 km/h
87 05-05-2011 17:16:01 23.2 C 4.16 g/m*3 23.2 C 0 km/h
88 05-05-2011 17:28:01 22.6 C 4.02 g/m*3 22.6 C 0 km/h
89 05-05-2011 17:40:02 21.7 C 3.82 g/m*3 21.7 C 0 km/h
90 05-05-2011 17:52:02 21.9 C 3.86 g/m*3 21.9 C 0 km/h
91 05-05-2011 18:04:02 22.6 C 4.02 g/m*3 22.6 C 0 km/h
92 05-05-2011 18:16:02 21.7 C 3.82 g/m*3 21.7 C 0 km/h
93 05-05-2011 18:28:02 20.5 C 3.56 g/m*3 20.5 C 0 km/h
94 05-05-2011 18:40:02 20.3 C 3.52 g/m*3 20.3 C 0 km/h
95 05-05-2011 18:52:01 19.2 C 3.3 g/m*3 19.2 C 0 km/h
96 05-05-2011 19:04:02 18.5 C 4.11 g/m*3 18.5 C 0 km/h
97 05-05-2011 19:16:01 18 C 4.92 g/m*3 18 C 0 km/h
98 05-05-2011 19:28:01 17.4 C 5.19 g/m*3 17.4 C 0 km/h
99 05-05-2011 19:40:02 16.2 C 4.96 g/m*3 16.2 C 0 km/h
100 05-05-2011 19:52:02 15.4 C 5.26 g/m*3 15.4 C 0 km/h
Sensor: Nr:Datum:Temp:Abs-Feuchte:Windchill:Wind:
Aussen-T/F 101 05-05-2011 20:04:02 14.4 C 5.19 g/m*3 14.4 C 0 km/h
102 05-05-2011 20:16:02 13.7 C 4.97 g/m*3 13.7 C 0 km/h
103 05-05-2011 20:28:02 13.1 C 4.56 g/m*3 13.1 C 0 km/h
104 05-05-2011 20:40:02 12.5 C 4.4 g/m*3 12.5 C 0 km/h
105 05-05-2011 20:52:02 12.2 C 4.32 g/m*3 12.2 C 0 km/h
106 05-05-2011 21:04:03 12 C 4.05 g/m*3 12 C 0 km/h
107 05-05-2011 21:16:02 11.7 C 4.18 g/m*3 11.7 C 0 km/h
108 05-05-2011 21:28:02 10.8 C 4.05 g/m*3 10.8 C 0 km/h
109 05-05-2011 21:40:02 10.3 C 4.12 g/m*3 10.3 C 0 km/h
110 05-05-2011 21:52:02 9.7 C 4.33 g/m*3 9.7 C 0 km/h
111 05-05-2011 22:04:02 9.5 C 4.55 g/m*3 9.5 C 0 km/h
112 05-05-2011 22:16:02 9.4 C 4.61 g/m*3 9.4 C 0 km/h
113 05-05-2011 22:28:02 9.1 C 4.7 g/m*3 9.1 C 0 km/h
114 05-05-2011 22:40:02 8.7 C 4.84 g/m*3 8.7 C 0 km/h
115 05-05-2011 22:53:03 8.6 C 4.64 g/m*3 8.6 C 0 km/h
116 05-05-2011 23:05:03 8.4 C 4.67 g/m*3 8.4 C 0 km/h
117 05-05-2011 23:17:03 8.4 C 4.92 g/m*3 8.4 C 0 km/h
118 05-05-2011 23:29:03 7.8 C 4.82 g/m*3 7.8 C 0 km/h
119 05-05-2011 23:41:03 7.6 C 4.83 g/m*3 7.6 C 0 km/h
120 05-05-2011 23:53:03 7.5 C 4.88 g/m*3 7.5 C 0 km/h

Legende:
   Min
   Max


Maximal/Minimal-Werte vom 05.05.2011 - 05.05.2011

Sensor Min Max Avg
Temp
(Aussen-T/F)
0.2 °C
05-05-2011  06:28:04
25.3 °C
05-05-2011  15:28:02
10.32 °C
Abs-Feuchte
(Aussen-T/F)
3.3 g/m*3
05-05-2011  18:52:01
6.7 g/m*3
05-05-2011  10:28:02
4.51 g/m*3
Windchill
(Aussen-T/F)
0.2 C
05-05-2011  06:28:04
25.3 C
05-05-2011  15:28:02
10.24 C

Die Daten stammen von einer Davis Vantage Pro 2 Wetter-Station und werden unter Linux mit der Software wview2wettercgi und aufbereitet. Alle Angaben erfolgen ohne Gewähr für ihre Vollständigkeit oder Richtigkeit.
Kontakt: Rainer Krienke krienke@uni-koblenz.de . Meine Webseiten an der Uni Koblenz oder privat.
Version: $Revision: 0.78 $